createdAt,value
2023-01-27T00:00:50.988Z,101857.63
2023-01-27T00:03:19.502Z,101856.72
2023-01-27T00:05:47.935Z,101854.97
2023-01-27T00:08:17.650Z,101854.03
2023-01-27T00:10:45.618Z,101852.25
2023-01-27T00:13:29.372Z,101858.50
2023-01-27T00:15:57.373Z,101855.03
2023-01-27T00:18:25.749Z,101858.59
2023-01-27T00:21:10.840Z,101848.72
2023-01-27T00:24:02.769Z,101855.03
2023-01-27T00:26:30.671Z,101859.63
2023-01-27T00:28:58.464Z,101862.25
2023-01-27T00:31:44.211Z,101864.97
2023-01-27T00:34:12.118Z,101864.16
2023-01-27T00:36:42.688Z,101865.94
2023-01-27T00:39:13.498Z,101872.22
2023-01-27T00:41:44.381Z,101865.09
2023-01-27T00:44:13.449Z,101872.28
2023-01-27T00:46:42.016Z,101874.09
2023-01-27T00:49:10.760Z,101878.56
2023-01-27T00:51:38.582Z,101877.69
2023-01-27T00:54:07.143Z,101880.34
2023-01-27T00:56:36.255Z,101881.19
2023-01-27T00:59:04.124Z,101881.19
2023-01-27T01:01:33.898Z,101880.41
2023-01-27T01:04:02.305Z,101896.78
2023-01-27T01:06:31.560Z,101884.22
2023-01-27T01:08:59.465Z,101885.09
2023-01-27T01:11:28.008Z,101878.78
2023-01-27T01:13:57.286Z,101887.06
2023-01-27T01:16:25.939Z,101889.75
2023-01-27T01:18:54.092Z,101894.41
2023-01-27T01:21:22.467Z,101890.97
2023-01-27T01:23:50.380Z,101901.63
2023-01-27T01:26:18.986Z,101902.56
2023-01-27T01:28:47.364Z,101904.59
2023-01-27T01:31:18.238Z,101908.22
2023-01-27T01:33:46.362Z,101907.59
2023-01-27T01:36:15.988Z,101909.38
2023-01-27T01:38:44.376Z,101913.00
2023-01-27T01:41:15.026Z,101916.69
2023-01-27T01:43:43.338Z,101910.41
2023-01-27T01:46:14.155Z,101920.28
2023-01-27T01:48:47.963Z,101917.47
2023-01-27T01:51:19.271Z,101911.34
2023-01-27T01:53:53.023Z,101913.06
2023-01-27T01:56:24.063Z,101909.38
2023-01-27T01:58:55.203Z,101912.00
2023-01-27T02:01:23.052Z,101908.44
2023-01-27T02:04:00.597Z,101910.94
2023-01-27T02:06:29.401Z,101917.34
2023-01-27T02:08:58.522Z,101904.66
2023-01-27T02:11:26.481Z,101917.47
2023-01-27T02:13:54.356Z,101920.03
2023-01-27T02:16:22.271Z,101914.81
2023-01-27T02:18:50.542Z,101929.22
2023-01-27T02:21:19.958Z,101916.16
2023-01-27T02:23:56.512Z,101933.63
2023-01-27T02:26:29.432Z,101922.75
2023-01-27T02:28:59.384Z,101925.25
2023-01-27T02:31:27.589Z,101933.34
2023-01-27T02:34:01.936Z,101934.09
2023-01-27T02:36:31.791Z,101939.13
2023-01-27T02:39:02.594Z,101938.88
2023-01-27T02:41:36.963Z,101935.19
2023-01-27T02:44:05.417Z,101938.81
2023-01-27T02:46:34.070Z,101947.22
2023-01-27T02:49:02.649Z,101938.22
2023-01-27T02:51:30.941Z,101936.41
2023-01-27T02:54:00.669Z,101953.44
2023-01-27T02:56:28.560Z,101951.00
2023-01-27T02:58:59.457Z,101960.84
2023-01-27T03:01:35.739Z,101956.41
2023-01-27T03:04:03.766Z,101950.03
2023-01-27T03:06:31.573Z,101954.56
2023-01-27T03:08:59.498Z,101949.19
2023-01-27T03:11:45.679Z,101950.97
2023-01-27T03:14:14.876Z,101955.53
2023-01-27T03:17:00.089Z,101950.91
2023-01-27T03:19:27.918Z,101956.47
2023-01-27T03:21:56.644Z,101960.88
2023-01-27T03:24:25.903Z,101950.03
2023-01-27T03:26:55.829Z,101952.78
2023-01-27T03:29:52.789Z,101953.66
2023-01-27T03:32:20.626Z,101955.44
2023-01-27T03:35:03.976Z,101949.09
2023-01-27T03:37:54.706Z,101948.94
2023-01-27T03:40:39.991Z,101951.00
2023-01-27T03:43:25.134Z,101950.03
2023-01-27T03:46:12.612Z,101946.38
2023-01-27T03:48:40.485Z,101944.63
2023-01-27T03:51:10.481Z,101942.75
2023-01-27T03:53:38.707Z,101953.50
2023-01-27T03:56:07.305Z,101955.34
2023-01-27T03:58:37.363Z,101957.00
2023-01-27T04:01:08.701Z,101942.75
2023-01-27T04:03:54.870Z,101948.97
2023-01-27T04:06:42.224Z,101951.66
2023-01-27T04:09:12.113Z,101949.94
2023-01-27T04:11:59.690Z,101948.22
2023-01-27T04:14:29.824Z,101951.75
2023-01-27T04:17:01.346Z,101957.06
2023-01-27T04:19:29.171Z,101958.97
2023-01-27T04:21:57.811Z,101959.78
2023-01-27T04:24:25.950Z,101957.06
2023-01-27T04:26:56.489Z,101967.81
2023-01-27T04:29:26.293Z,101970.53
2023-01-27T04:31:54.656Z,101971.47
2023-01-27T04:34:24.284Z,101970.44
2023-01-27T04:36:52.393Z,101962.41
2023-01-27T04:39:20.698Z,101974.94
2023-01-27T04:41:49.080Z,101963.19
2023-01-27T04:44:17.218Z,101970.38
2023-01-27T04:46:45.005Z,101964.97
2023-01-27T04:49:13.244Z,101970.31
2023-01-27T04:51:42.444Z,101985.53
2023-01-27T04:54:10.481Z,101970.19
2023-01-27T04:56:44.433Z,101977.38
2023-01-27T04:59:15.424Z,101981.84
2023-01-27T05:01:43.281Z,101987.25
2023-01-27T05:04:11.111Z,101982.72
2023-01-27T05:06:39.066Z,101989.91
2023-01-27T05:09:08.348Z,101981.72
2023-01-27T05:11:36.468Z,101981.72
2023-01-27T05:14:04.294Z,101983.47
2023-01-27T05:16:32.261Z,101987.06
2023-01-27T05:19:00.345Z,101985.25
2023-01-27T05:21:31.073Z,101992.47
2023-01-27T05:23:59.033Z,101996.00
2023-01-27T05:26:29.293Z,101995.94
2023-01-27T05:28:58.488Z,101986.00
2023-01-27T05:31:30.131Z,102000.41
2023-01-27T05:34:00.075Z,102003.06
2023-01-27T05:36:28.415Z,101998.59
2023-01-27T05:38:57.047Z,101997.66
2023-01-27T05:41:24.887Z,102001.31
2023-01-27T05:43:55.532Z,101999.44
2023-01-27T05:46:26.637Z,101999.34
2023-01-27T05:48:56.590Z,102005.63
2023-01-27T05:51:25.729Z,102011.94
2023-01-27T05:53:55.858Z,102006.53
2023-01-27T05:56:25.496Z,102011.00
2023-01-27T05:58:57.059Z,102005.59
2023-01-27T06:01:27.118Z,102013.69
2023-01-27T06:03:57.763Z,102006.47
2023-01-27T06:06:27.250Z,102009.13
2023-01-27T06:08:55.166Z,102011.81
2023-01-27T06:11:24.348Z,102011.81
2023-01-27T06:13:53.157Z,102018.06
2023-01-27T06:16:23.470Z,102011.81
2023-01-27T06:18:51.497Z,102012.72
2023-01-27T06:21:20.489Z,102019.94
2023-01-27T06:23:48.598Z,102017.25
2023-01-27T06:26:18.490Z,102018.97
2023-01-27T06:28:46.369Z,102023.53
2023-01-27T06:31:16.829Z,102028.81
2023-01-27T06:33:46.159Z,102031.50
2023-01-27T06:36:17.222Z,102025.16
2023-01-27T06:38:46.109Z,102034.16
2023-01-27T06:41:14.223Z,102028.75
2023-01-27T06:43:42.097Z,102028.75
2023-01-27T06:46:10.379Z,102042.28
2023-01-27T06:48:41.041Z,102045.03
2023-01-27T06:51:10.302Z,102044.94
2023-01-27T06:53:38.747Z,102049.47
2023-01-27T06:56:07.815Z,102049.34
2023-01-27T06:58:35.816Z,102047.59
2023-01-27T07:01:05.897Z,102047.47
2023-01-27T07:03:36.861Z,102053.81
2023-01-27T07:06:05.016Z,102052.00
2023-01-27T07:08:34.254Z,102060.03
2023-01-27T07:11:04.547Z,102058.16
2023-01-27T07:13:37.749Z,102059.97
2023-01-27T07:16:06.440Z,102059.97
2023-01-27T07:18:34.405Z,102057.31
2023-01-27T07:21:04.777Z,102064.50
2023-01-27T07:23:33.986Z,102065.34
2023-01-27T07:26:07.801Z,102064.47
2023-01-27T07:28:43.650Z,102065.34
2023-01-27T07:31:11.562Z,102060.81
2023-01-27T07:33:39.447Z,102068.94
2023-01-27T07:36:07.521Z,102064.41
2023-01-27T07:38:36.693Z,102061.66
2023-01-27T07:41:05.175Z,102060.75
2023-01-27T07:43:32.988Z,102064.41
2023-01-27T07:46:00.949Z,102070.69
2023-01-27T07:48:28.813Z,102070.69
2023-01-27T07:50:58.514Z,102074.34
2023-01-27T07:53:26.319Z,102068.09
2023-01-27T07:55:55.456Z,102068.03
2023-01-27T07:58:23.434Z,102066.22
2023-01-27T08:00:51.270Z,102077.94
2023-01-27T08:03:23.931Z,102084.19
2023-01-27T08:05:51.883Z,102078.88
2023-01-27T08:08:20.011Z,102076.13
2023-01-27T08:10:49.340Z,102088.69
2023-01-27T08:13:21.280Z,102090.47
2023-01-27T08:15:49.186Z,102090.56
2023-01-27T08:18:16.947Z,102090.47
2023-01-27T08:20:46.131Z,102087.69
2023-01-27T08:23:14.073Z,102084.03
2023-01-27T08:25:41.865Z,102089.44
2023-01-27T08:28:11.357Z,102095.69
2023-01-27T08:30:40.575Z,102089.44
2023-01-27T08:33:08.443Z,102075.97
2023-01-27T08:35:37.050Z,102078.78
2023-01-27T08:38:05.042Z,102084.09
2023-01-27T08:40:33.035Z,102079.56
2023-01-27T08:43:03.957Z,102085.16
2023-01-27T08:45:32.928Z,102085.13
2023-01-27T08:48:02.882Z,102083.41
2023-01-27T08:50:30.782Z,102091.50
2023-01-27T08:52:59.686Z,102086.16
2023-01-27T08:55:27.984Z,102095.94
2023-01-27T08:57:56.350Z,102093.22
2023-01-27T09:00:24.508Z,102086.06
2023-01-27T09:02:52.446Z,102093.31
2023-01-27T09:05:22.315Z,102087.63
2023-01-27T09:07:50.369Z,102094.91
2023-01-27T09:10:19.396Z,102102.94
2023-01-27T09:12:47.196Z,102101.94
2023-01-27T09:15:15.943Z,102109.06
2023-01-27T09:17:44.013Z,102103.56
2023-01-27T09:20:13.351Z,102112.75
2023-01-27T09:22:43.141Z,102121.56
2023-01-27T09:25:15.530Z,102117.09
2023-01-27T09:27:43.703Z,102117.13
2023-01-27T09:30:13.757Z,102117.03
2023-01-27T09:32:42.240Z,102120.56
2023-01-27T09:35:11.514Z,102121.38
2023-01-27T09:37:45.061Z,102122.16
2023-01-27T09:40:27.982Z,102117.44
2023-01-27T09:43:31.474Z,102125.44
2023-01-27T09:46:20.285Z,102124.56
2023-01-27T09:49:05.035Z,102125.25
2023-01-27T09:51:42.838Z,102129.69
2023-01-27T09:54:24.404Z,102133.16
2023-01-27T09:57:01.266Z,102135.81
2023-01-27T09:59:46.563Z,102141.94
2023-01-27T10:02:32.128Z,102133.81
2023-01-27T10:05:17.262Z,102135.53
2023-01-27T10:08:01.844Z,102139.19
2023-01-27T10:10:45.169Z,102126.63
2023-01-27T10:13:23.407Z,102139.22
2023-01-27T10:16:08.399Z,102136.31
2023-01-27T10:18:54.387Z,102141.69
2023-01-27T10:21:32.676Z,102138.94
2023-01-27T10:24:12.100Z,102137.94
2023-01-27T10:26:45.828Z,102137.94
2023-01-27T10:29:22.687Z,102137.75
2023-01-27T10:31:57.320Z,102137.56
2023-01-27T10:34:29.420Z,102141.22
2023-01-27T10:37:10.135Z,102141.09
2023-01-27T10:39:46.858Z,102133.84
2023-01-27T10:42:26.991Z,102131.84
2023-01-27T10:45:12.024Z,102128.38
2023-01-27T10:47:53.639Z,102131.78
2023-01-27T10:50:28.383Z,102127.31
2023-01-27T10:53:03.061Z,102130.84
2023-01-27T10:55:38.944Z,102126.81
2023-01-27T10:58:16.147Z,102131.03
2023-01-27T11:01:18.014Z,102128.31
2023-01-27T11:03:40.752Z,102123.00
2023-01-27T11:06:14.904Z,102122.84
2023-01-27T11:08:47.815Z,102123.53
2023-01-27T11:11:36.615Z,102126.25
2023-01-27T11:14:23.626Z,102130.97
2023-01-27T11:16:54.026Z,102128.44
2023-01-27T11:19:33.979Z,102124.63
2023-01-27T11:22:09.006Z,102116.50
2023-01-27T11:24:45.579Z,102113.56
2023-01-27T11:27:21.654Z,102119.78
2023-01-27T11:29:56.223Z,102123.38
2023-01-27T11:32:46.925Z,102116.97
2023-01-27T11:35:16.287Z,102127.81
2023-01-27T11:37:46.641Z,102119.00
2023-01-27T11:40:18.150Z,102127.91
2023-01-27T11:42:46.756Z,102133.13
2023-01-27T11:45:18.553Z,102126.25
2023-01-27T11:47:50.671Z,102123.63
2023-01-27T11:50:21.816Z,102126.94
2023-01-27T11:52:51.877Z,102119.78
2023-01-27T11:55:24.872Z,102129.63
2023-01-27T11:57:57.513Z,102127.13
2023-01-27T12:00:34.484Z,102126.88
2023-01-27T12:03:08.584Z,102128.78
2023-01-27T12:05:42.295Z,102122.59
2023-01-27T12:08:10.373Z,102126.81
2023-01-27T12:10:42.155Z,102123.41
2023-01-27T12:13:16.904Z,102118.63
2023-01-27T12:15:54.365Z,102108.69
2023-01-27T12:18:25.596Z,102103.19
2023-01-27T12:21:01.057Z,102101.38
2023-01-27T12:23:32.639Z,102106.91
2023-01-27T12:26:03.419Z,102106.78
2023-01-27T12:28:34.490Z,102101.44
2023-01-27T12:31:11.191Z,102104.88
2023-01-27T12:33:45.346Z,102103.06
2023-01-27T12:36:18.907Z,102107.53
2023-01-27T12:38:52.137Z,102096.91
2023-01-27T12:41:26.168Z,102101.38
2023-01-27T12:43:56.247Z,102098.53
2023-01-27T12:46:29.853Z,102095.81
2023-01-27T12:49:03.760Z,102099.47
2023-01-27T12:51:41.131Z,102099.41
2023-01-27T12:54:21.941Z,102097.56
2023-01-27T12:56:50.286Z,102094.03
2023-01-27T12:59:21.332Z,102091.22
2023-01-27T13:02:02.475Z,102088.50
2023-01-27T13:04:31.663Z,102100.34
2023-01-27T13:07:08.543Z,102101.22
2023-01-27T13:09:47.027Z,102097.72
2023-01-27T13:12:20.685Z,102096.69
2023-01-27T13:14:51.881Z,102105.72
2023-01-27T13:17:37.521Z,102097.53
2023-01-27T13:20:16.768Z,102103.00
2023-01-27T13:22:48.409Z,102109.31
2023-01-27T13:25:21.991Z,102109.31
2023-01-27T13:27:54.616Z,102104.75
2023-01-27T13:30:28.827Z,102108.38
2023-01-27T13:33:04.986Z,102109.25
2023-01-27T13:35:39.991Z,102119.09
2023-01-27T13:38:19.412Z,102122.59
2023-01-27T13:40:48.571Z,102122.75
2023-01-27T13:43:20.915Z,102117.25
2023-01-27T13:45:55.031Z,102118.13
2023-01-27T13:48:27.872Z,102127.94
2023-01-27T13:51:04.534Z,102127.06
2023-01-27T13:53:32.616Z,102125.56
2023-01-27T13:56:18.197Z,102131.66
2023-01-27T13:58:55.147Z,102127.28
2023-01-27T14:01:26.975Z,102131.75
2023-01-27T14:04:22.996Z,102136.28
2023-01-27T14:07:01.652Z,102129.97
2023-01-27T14:09:53.192Z,102130.88
2023-01-27T14:12:41.082Z,102130.81
2023-01-27T14:15:22.298Z,102118.25
2023-01-27T14:18:01.535Z,102125.25
2023-01-27T14:20:56.699Z,102126.19
2023-01-27T14:23:43.112Z,102132.50
2023-01-27T14:26:23.816Z,102130.88
2023-01-27T14:29:06.060Z,102131.50
2023-01-27T14:31:45.530Z,102135.09
2023-01-27T14:34:31.829Z,102136.78
2023-01-27T14:37:16.296Z,102130.53
2023-01-27T14:39:55.868Z,102136.78
2023-01-27T14:42:33.015Z,102137.91
2023-01-27T14:45:07.244Z,102139.56
2023-01-27T14:47:42.462Z,102138.69
2023-01-27T14:50:22.945Z,102143.38
2023-01-27T14:53:00.601Z,102139.69
2023-01-27T14:55:41.582Z,102135.13
2023-01-27T14:58:29.389Z,102146.88
2023-01-27T15:01:08.176Z,102146.81
2023-01-27T15:04:02.241Z,102142.44
2023-01-27T15:06:42.128Z,102145.53
2023-01-27T15:09:27.448Z,102156.25
2023-01-27T15:12:23.009Z,102155.78
2023-01-27T15:15:20.936Z,102160.25
2023-01-27T15:18:03.835Z,102170.28
2023-01-27T15:20:50.349Z,102168.44
2023-01-27T15:23:37.629Z,102162.03
2023-01-27T15:26:10.172Z,102169.94
2023-01-27T15:28:41.845Z,102183.19
2023-01-27T15:31:22.890Z,102193.91
2023-01-27T15:33:54.433Z,102186.09
2023-01-27T15:36:34.672Z,102199.38
2023-01-27T15:39:26.021Z,102202.97
2023-01-27T15:42:12.721Z,102206.81
2023-01-27T15:44:42.930Z,102198.63
2023-01-27T15:47:15.305Z,102198.50
2023-01-27T15:49:46.748Z,102203.06
2023-01-27T15:52:29.233Z,102213.75
2023-01-27T15:54:59.804Z,102213.88
2023-01-27T15:57:34.981Z,102211.97
2023-01-27T16:00:07.798Z,102218.22
2023-01-27T16:02:47.138Z,102216.31
2023-01-27T16:05:25.203Z,102215.34
2023-01-27T16:07:55.186Z,102213.56
2023-01-27T16:10:25.549Z,102210.81
2023-01-27T16:13:16.112Z,102217.03
2023-01-27T16:15:44.042Z,102225.19
2023-01-27T16:18:41.771Z,102229.50
2023-01-27T16:21:30.276Z,102228.56
2023-01-27T16:24:02.960Z,102233.19
2023-01-27T16:26:35.924Z,102232.38
2023-01-27T16:29:26.403Z,102228.63
2023-01-27T16:32:00.096Z,102230.50
2023-01-27T16:34:39.165Z,102243.91
2023-01-27T16:37:18.586Z,102243.91
2023-01-27T16:39:51.150Z,102247.53
2023-01-27T16:42:19.168Z,102252.06
2023-01-27T16:44:50.979Z,102250.16
2023-01-27T16:47:26.163Z,102264.59
2023-01-27T16:49:55.972Z,102256.50
2023-01-27T16:52:41.265Z,102260.94
2023-01-27T16:55:21.830Z,102255.63
2023-01-27T16:57:50.116Z,102266.50
2023-01-27T17:00:26.165Z,102267.44
2023-01-27T17:02:55.906Z,102265.75
2023-01-27T17:05:24.278Z,102265.91
2023-01-27T17:08:14.048Z,102268.47
2023-01-27T17:10:43.908Z,102258.63
2023-01-27T17:13:27.629Z,102254.03
2023-01-27T17:15:58.034Z,102264.88
2023-01-27T17:18:26.990Z,102263.00
2023-01-27T17:20:55.275Z,102271.97
2023-01-27T17:23:25.613Z,102277.50
2023-01-27T17:25:53.487Z,102279.16
2023-01-27T17:28:26.424Z,102271.88
2023-01-27T17:31:02.041Z,102274.63
2023-01-27T17:33:31.856Z,102276.66
2023-01-27T17:36:04.002Z,102286.38
2023-01-27T17:38:42.203Z,102278.28
2023-01-27T17:41:25.907Z,102281.97
2023-01-27T17:43:55.853Z,102272.97
2023-01-27T17:46:26.563Z,102281.00
2023-01-27T17:48:58.948Z,102282.81
2023-01-27T17:51:29.868Z,102280.19
2023-01-27T17:53:59.351Z,102282.91
2023-01-27T17:56:30.463Z,102281.97
2023-01-27T17:59:05.617Z,102279.16
2023-01-27T18:01:34.403Z,102281.09
2023-01-27T18:04:10.484Z,102289.13
2023-01-27T18:06:40.292Z,102289.13
2023-01-27T18:09:21.791Z,102285.53
2023-01-27T18:11:55.688Z,102289.13
2023-01-27T18:14:23.984Z,102286.56
2023-01-27T18:17:03.603Z,102290.91
2023-01-27T18:19:36.313Z,102296.47
2023-01-27T18:22:12.805Z,102297.25
2023-01-27T18:24:48.150Z,102300.03
2023-01-27T18:27:32.473Z,102308.09
2023-01-27T18:30:04.546Z,102300.94
2023-01-27T18:32:40.576Z,102309.22
2023-01-27T18:35:47.695Z,102314.69
2023-01-27T18:38:26.639Z,102323.59
2023-01-27T18:40:55.824Z,102315.56
2023-01-27T18:43:23.867Z,102313.75
2023-01-27T18:45:51.844Z,102323.66
2023-01-27T18:48:19.742Z,102326.59
2023-01-27T18:50:54.853Z,102316.56
2023-01-27T18:53:33.336Z,102323.84
2023-01-27T18:56:02.911Z,102330.25
2023-01-27T18:58:35.731Z,102326.59
2023-01-27T19:01:14.689Z,102332.81
2023-01-27T19:03:44.928Z,102341.13
2023-01-27T19:06:16.756Z,102339.22
2023-01-27T19:08:48.924Z,102334.72
2023-01-27T19:11:19.962Z,102347.47
2023-01-27T19:13:48.591Z,102334.06
2023-01-27T19:16:19.001Z,102340.25
2023-01-27T19:18:47.114Z,102346.59
2023-01-27T19:21:17.856Z,102340.25
2023-01-27T19:23:46.011Z,102334.88
2023-01-27T19:26:18.349Z,102342.00
2023-01-27T19:28:48.458Z,102333.06
2023-01-27T19:31:17.377Z,102335.72
2023-01-27T19:33:47.371Z,102335.72
2023-01-27T19:36:22.582Z,102335.59
2023-01-27T19:38:52.958Z,102337.44
2023-01-27T19:41:20.829Z,102333.78
2023-01-27T19:43:49.999Z,102336.50
2023-01-27T19:46:21.847Z,102346.31
2023-01-27T19:48:50.243Z,102343.75
2023-01-27T19:51:20.144Z,102341.84
2023-01-27T19:53:48.506Z,102352.75
2023-01-27T19:56:18.333Z,102351.78
2023-01-27T19:58:49.819Z,102350.97
2023-01-27T20:01:18.149Z,102351.97
2023-01-27T20:03:46.184Z,102360.94
2023-01-27T20:06:17.198Z,102359.06
2023-01-27T20:08:48.012Z,102352.84
2023-01-27T20:11:50.786Z,102361.88
2023-01-27T20:14:28.484Z,102362.97
2023-01-27T20:16:56.480Z,102358.38
2023-01-27T20:19:24.407Z,102362.91
2023-01-27T20:21:54.136Z,102366.69
2023-01-27T20:24:27.053Z,102371.91
2023-01-27T20:26:56.632Z,102373.94
2023-01-27T20:29:24.906Z,102376.84
2023-01-27T20:31:52.963Z,102384.94
2023-01-27T20:34:20.891Z,102375.97
2023-01-27T20:36:48.805Z,102376.94
2023-01-27T20:39:16.821Z,102379.69
2023-01-27T20:41:46.215Z,102376.06
2023-01-27T20:44:14.134Z,102378.91
2023-01-27T20:46:42.526Z,102377.03
2023-01-27T20:49:10.542Z,102374.34
2023-01-27T20:51:38.578Z,102367.19
2023-01-27T20:54:06.891Z,102376.19
2023-01-27T20:56:34.949Z,102380.75
2023-01-27T20:59:04.429Z,102387.06
2023-01-27T21:01:33.225Z,102385.53
2023-01-27T21:04:01.405Z,102386.38
2023-01-27T21:06:29.465Z,102386.31
2023-01-27T21:08:57.269Z,102391.03
2023-01-27T21:11:25.428Z,102393.72
2023-01-27T21:13:53.344Z,102395.59
2023-01-27T21:16:23.137Z,102391.03
2023-01-27T21:18:51.400Z,102394.66
2023-01-27T21:21:25.751Z,102393.81
2023-01-27T21:23:54.160Z,102399.47
2023-01-27T21:26:22.346Z,102400.44
2023-01-27T21:28:51.452Z,102403.22
2023-01-27T21:31:24.396Z,102398.94
2023-01-27T21:33:52.437Z,102398.03
2023-01-27T21:36:20.467Z,102394.34
2023-01-27T21:38:52.676Z,102395.47
2023-01-27T21:41:40.343Z,102398.25
2023-01-27T21:44:34.127Z,102394.72
2023-01-27T21:47:04.308Z,102383.00
2023-01-27T21:49:34.762Z,102391.97
2023-01-27T21:52:02.739Z,102384.84
2023-01-27T21:54:30.483Z,102389.38
2023-01-27T21:56:58.270Z,102385.69
2023-01-27T21:59:26.078Z,102392.16
2023-01-27T22:01:55.281Z,102384.06
2023-01-27T22:04:24.675Z,102389.38
2023-01-27T22:06:52.727Z,102380.41
2023-01-27T22:09:20.798Z,102384.94
2023-01-27T22:11:48.828Z,102380.53
2023-01-27T22:14:16.647Z,102374.13
2023-01-27T22:16:44.515Z,102382.53
2023-01-27T22:19:12.610Z,102380.63
2023-01-27T22:21:44.658Z,102385.13
2023-01-27T22:24:16.285Z,102379.69
2023-01-27T22:26:44.391Z,102384.22
2023-01-27T22:29:12.726Z,102387.69
2023-01-27T22:31:43.013Z,102387.72
2023-01-27T22:34:11.151Z,102386.75
2023-01-27T22:36:39.013Z,102384.94
2023-01-27T22:39:08.431Z,102387.69
2023-01-27T22:41:36.267Z,102382.38
2023-01-27T22:44:04.555Z,102375.09
2023-01-27T22:46:32.523Z,102371.59
2023-01-27T22:49:00.375Z,102381.53
2023-01-27T22:51:28.100Z,102372.44
2023-01-27T22:53:56.189Z,102379.75
2023-01-27T22:56:25.355Z,102378.81
2023-01-27T22:58:53.350Z,102377.94
2023-01-27T23:01:21.337Z,102379.63
2023-01-27T23:03:49.180Z,102382.28
2023-01-27T23:06:17.824Z,102380.41
2023-01-27T23:08:45.878Z,102384.94
2023-01-27T23:11:13.874Z,102384.09
2023-01-27T23:13:43.596Z,102385.81
2023-01-27T23:16:11.589Z,102389.38
2023-01-27T23:18:39.471Z,102390.41
2023-01-27T23:21:09.097Z,102393.94
2023-01-27T23:23:37.194Z,102398.50
2023-01-27T23:26:08.447Z,102400.19
2023-01-27T23:28:38.272Z,102396.84
2023-01-27T23:31:10.854Z,102396.88
2023-01-27T23:33:40.808Z,102402.31
2023-01-27T23:36:10.422Z,102405.88
2023-01-27T23:38:38.722Z,102404.06
2023-01-27T23:41:08.093Z,102413.97
2023-01-27T23:43:35.918Z,102406.91
2023-01-27T23:46:04.034Z,102404.09
2023-01-27T23:48:33.463Z,102411.34
2023-01-27T23:51:06.931Z,102405.88
2023-01-27T23:53:34.869Z,102407.75
2023-01-27T23:56:02.618Z,102399.81
2023-01-27T23:58:30.408Z,102402.72
